Time;durP1;ratioP1;P1;durP2;ratioP2;P2;SDS_P1;SDS_P2;PMS_P1;PMS_P2;Temp;Humidity;BMP_temperature;BMP_pressure;BME280_temperature;BME280_humidity;BME280_pressure;Samples;Min_cycle;Max_cycle;Signal;HPM_P1;HPM_P2
2022/11/06 00:00:47;;;;;;;32.47;22.13;;;;;;;13.36;57.98;94193.94;4177797;28;20238;-48
2022/11/06 00:02:49;;;;;;;38.67;22.75;;;;;;;13.42;58.13;94194.03;4188382;28;20091;-54
2022/11/06 00:04:51;;;;;;;38.80;23.02;;;;;;;13.49;57.64;94194.09;4195088;28;20052;-55
2022/11/06 00:06:52;;;;;;;32.17;22.85;;;;;;;13.50;57.89;94188.63;4185347;28;20151;-54
2022/11/06 00:08:55;;;;;;;33.72;22.25;;;;;;;13.55;57.60;94193.34;4191674;28;20141;-56
2022/11/06 00:10:57;;;;;;;39.55;23.08;;;;;;;13.59;57.60;94202.47;4192880;28;20143;-55
2022/11/06 00:12:59;;;;;;;35.15;22.00;;;;;;;13.62;57.37;94198.66;4199711;28;20087;-54
2022/11/06 00:15:01;;;;;;;34.33;20.90;;;;;;;13.66;57.14;94192.00;4197770;28;20113;-51
2022/11/06 00:17:03;;;;;;;33.63;21.90;;;;;;;13.66;57.24;94198.09;4198059;28;20056;-53
2022/11/06 00:19:05;;;;;;;31.48;21.17;;;;;;;13.66;57.47;94195.44;4198458;28;20136;-55
2022/11/06 00:21:12;;;;;;;32.80;21.88;;;;;;;13.66;57.20;94189.38;4188554;28;20060;-51
2022/11/06 00:23:14;;;;;;;34.65;22.20;;;;;;;13.64;57.69;94189.56;4188164;28;20102;-56
2022/11/06 00:25:15;;;;;;;33.33;21.02;;;;;;;13.62;57.76;94183.69;4197472;28;20152;-54
2022/11/06 00:27:17;;;;;;;34.53;22.27;;;;;;;13.63;57.45;94177.41;4187436;28;21049;-54
2022/11/06 00:29:19;;;;;;;32.45;21.88;;;;;;;13.67;57.05;94189.16;4195460;28;20082;-56
2022/11/06 00:31:23;;;;;;;32.53;21.33;;;;;;;13.69;57.08;94184.53;4183092;28;20060;-57
2022/11/06 00:33:24;;;;;;;;;;;;;;;13.69;57.40;94187.16;4182697;28;20402;-56
2022/11/06 00:35:26;;;;;;;35.40;22.33;;;;;;;13.68;57.25;94182.91;4195025;28;19959;-55
2022/11/06 00:37:27;;;;;;;38.28;22.70;;;;;;;13.66;57.39;94181.50;4196765;28;20050;-56
2022/11/06 00:39:29;;;;;;;34.08;22.02;;;;;;;13.64;57.69;94180.88;4208459;28;20059;-53
2022/11/06 00:41:31;;;;;;;32.30;21.27;;;;;;;13.64;57.73;94183.50;4179518;28;20122;-55
2022/11/06 00:43:34;;;;;;;31.58;21.55;;;;;;;13.63;57.55;94189.75;4187171;28;20127;-53
2022/11/06 00:45:36;;;;;;;37.08;22.63;;;;;;;13.62;57.97;94180.25;4194326;28;20052;-55
2022/11/06 00:47:38;;;;;;;34.05;21.52;;;;;;;13.66;57.54;94186.75;4192928;28;20502;-56
2022/11/06 00:49:39;;;;;;;31.05;21.23;;;;;;;13.65;57.51;94178.03;4194855;28;20048;-52
2022/11/06 00:51:41;;;;;;;33.42;23.38;;;;;;;13.65;57.32;94175.38;4191366;28;20060;-56
2022/11/06 00:53:44;;;;;;;31.13;22.27;;;;;;;13.62;57.37;94177.59;4190473;28;20178;-59
2022/11/06 00:55:46;;;;;;;36.60;21.05;;;;;;;13.58;57.31;94173.72;4195684;28;20048;-54
2022/11/06 00:57:47;;;;;;;33.10;20.80;;;;;;;13.61;57.31;94175.97;4202037;28;20405;-58
2022/11/06 00:59:49;;;;;;;37.55;21.95;;;;;;;13.64;57.72;94170.34;4195603;28;20126;-56
2022/11/06 01:01:51;;;;;;;33.67;22.48;;;;;;;13.62;58.04;94172.34;4199176;28;20191;-54
2022/11/06 01:03:55;;;;;;;32.08;21.50;;;;;;;13.52;58.41;94168.19;4192915;28;20037;-52
2022/11/06 01:06:08;;;;;;;33.28;22.13;;;;;;;13.49;58.23;94168.59;4191952;28;20151;-55
2022/11/06 01:08:10;;;;;;;33.85;22.10;;;;;;;13.48;58.52;94171.41;4179752;28;20419;-53
2022/11/06 01:10:12;;;;;;;41.40;22.73;;;;;;;13.51;57.93;94176.31;4178971;28;20227;-57
2022/11/06 01:12:14;;;;;;;32.10;21.88;;;;;;;13.54;58.26;94173.28;4188730;28;20494;-54
2022/11/06 01:14:17;;;;;;;35.42;22.35;;;;;;;13.51;58.36;94169.22;4195786;28;20045;-55
2022/11/06 01:16:20;;;;;;;33.80;22.08;;;;;;;13.51;58.49;94158.69;4186336;28;20128;-53
2022/11/06 01:18:21;;;;;;;34.85;22.00;;;;;;;13.49;58.46;94163.31;4191687;28;20451;-54
2022/11/06 01:20:23;;;;;;;31.80;22.63;;;;;;;13.48;58.48;94163.50;4199717;28;20079;-54
2022/11/06 01:22:25;;;;;;;40.72;23.67;;;;;;;13.46;58.53;94163.69;4194025;28;20079;-57
2022/11/06 01:24:27;;;;;;;35.33;22.52;;;;;;;13.42;58.47;94156.38;4193044;28;20128;-54
2022/11/06 01:26:30;;;;;;;34.35;22.80;;;;;;;13.35;58.63;94151.06;4195394;28;20120;-54
2022/11/06 01:28:40;;;;;;;34.67;22.80;;;;;;;13.32;58.87;94154.88;4205511;28;20105;-52
2022/11/06 01:30:42;;;;;;;32.92;21.67;;;;;;;13.29;58.68;94152.66;4196315;28;20049;-54
2022/11/06 01:32:43;;;;;;;35.25;22.90;;;;;;;13.19;59.24;94143.41;4195467;28;20045;-57
2022/11/06 01:34:45;;;;;;;38.17;22.77;;;;;;;13.06;59.37;94147.53;4197485;28;20134;-53
2022/11/06 01:36:47;;;;;;;32.20;22.23;;;;;;;13.02;59.92;94141.03;4208045;28;20135;-57
2022/11/06 01:38:51;;;;;;;36.63;22.83;;;;;;;12.99;59.90;94144.03;4207646;28;20080;-58
2022/11/06 01:40:52;;;;;;;;;;;;;;;12.80;60.22;94142.00;4188264;28;20055;-54
2022/11/06 01:42:54;;;;;;;33.38;23.60;;;;;;;12.78;60.43;94150.09;4191616;28;20019;-56
2022/11/06 01:45:36;;;;;;;34.90;21.50;;;;;;;12.46;61.32;94149.50;4179062;28;20537;-57
2022/11/06 01:47:38;;;;;;;37.35;21.92;;;;;;;12.16;62.18;94153.19;4127583;28;20774;-51
2022/11/06 01:49:40;;;;;;;35.15;22.80;;;;;;;12.06;62.50;94154.25;4166414;28;20072;-49
2022/11/06 01:51:48;;;;;;;34.80;21.70;;;;;;;11.82;64.05;94147.44;4197445;28;20241;-55
2022/11/06 01:53:51;;;;;;;32.45;19.58;;;;;;;11.94;64.48;94147.00;4196975;28;20094;-57
2022/11/06 01:55:56;;;;;;;32.60;20.48;;;;;;;12.07;63.89;94147.22;4203169;28;20052;-52
2022/11/06 01:57:59;;;;;;;29.88;17.75;;;;;;;12.26;63.50;94140.56;4193626;28;20567;-54
2022/11/06 02:00:03;;;;;;;21.45;14.25;;;;;;;12.40;63.48;94137.13;4199614;28;20520;-52
2022/11/06 02:02:05;;;;;;;19.25;12.95;;;;;;;12.61;62.56;94127.66;4210795;28;20055;-55
2022/11/06 02:04:15;;;;;;;18.88;12.57;;;;;;;12.75;62.39;94125.97;4208332;28;20139;-55
2022/11/06 02:06:17;;;;;;;21.33;12.25;;;;;;;12.90;61.71;94124.91;4198751;28;20118;-53
2022/11/06 02:08:20;;;;;;;19.63;12.27;;;;;;;13.04;61.43;94135.59;4209731;28;20370;-55
2022/11/06 02:10:22;;;;;;;23.13;11.82;;;;;;;13.18;61.18;94139.13;4175768;28;20093;-54
2022/11/06 02:12:31;;;;;;;16.02;11.45;;;;;;;13.27;60.78;94135.38;4210822;28;20044;-55
2022/11/06 02:14:44;;;;;;;20.27;10.43;;;;;;;13.38;60.55;94134.91;4210810;28;20146;-57
2022/11/06 02:16:52;;;;;;;15.52;10.95;;;;;;;13.45;60.31;94127.88;4207653;28;20056;-54
2022/11/06 02:19:10;;;;;;;20.15;10.27;;;;;;;13.51;60.16;94127.13;4183913;28;20506;-55
2022/11/06 02:21:14;;;;;;;20.15;10.98;;;;;;;13.46;60.32;94131.31;4208396;28;20125;-53
2022/11/06 02:23:44;;;;;;;15.70;10.38;;;;;;;13.44;60.29;94125.41;4194668;28;20108;-53
2022/11/06 02:26:29;;;;;;;17.80;11.25;;;;;;;13.39;60.34;94131.25;4192529;28;20080;-57
2022/11/06 02:28:34;;;;;;;19.23;10.77;;;;;;;13.47;60.16;94127.69;4183254;28;20136;-53
2022/11/06 02:30:40;;;;;;;24.58;11.18;;;;;;;13.50;60.52;94117.56;4190076;28;20063;-56
2022/11/06 02:32:59;;;;;;;14.88;10.07;;;;;;;13.55;60.33;94124.91;4189231;28;20127;-54
2022/11/06 02:35:02;;;;;;;18.60;10.68;;;;;;;13.61;59.98;94121.50;4194884;28;20142;-57
2022/11/06 02:37:12;;;;;;;17.23;10.35;;;;;;;13.65;60.13;94128.00;4209827;28;20473;-54
2022/11/06 02:39:16;;;;;;;16.38;9.90;;;;;;;13.66;59.61;94123.59;4208941;28;20059;-55
2022/11/06 02:41:27;;;;;;;16.10;9.57;;;;;;;13.72;59.67;94130.69;4202070;28;20132;-55
2022/11/06 02:43:37;;;;;;;15.30;9.43;;;;;;;13.68;59.79;94132.91;4186721;28;20147;-56
2022/11/06 02:45:44;;;;;;;16.35;10.35;;;;;;;13.64;59.59;94131.66;4190420;28;20057;-54
2022/11/06 02:47:49;;;;;;;18.98;10.25;;;;;;;13.66;59.94;94134.09;4209102;28;20576;-53
2022/11/06 02:49:58;;;;;;;16.45;9.20;;;;;;;13.56;60.22;94129.16;4194560;28;20430;-55
2022/11/06 02:52:08;;;;;;;17.02;9.52;;;;;;;13.55;60.10;94132.81;4202555;28;20118;-53
2022/11/06 02:54:10;;;;;;;18.35;8.88;;;;;;;13.55;60.29;94139.88;4202017;28;20051;-52
2022/11/06 02:56:14;;;;;;;18.30;8.95;;;;;;;13.60;59.92;94137.50;4202403;28;20147;-54
2022/11/06 02:58:34;;;;;;;14.60;8.10;;;;;;;13.59;60.01;94146.38;4198556;28;20082;-58
2022/11/06 03:00:41;;;;;;;15.63;7.78;;;;;;;13.54;60.16;94143.53;4207651;28;20113;-54
2022/11/06 03:02:53;;;;;;;13.35;7.93;;;;;;;13.59;59.86;94149.81;4177772;28;20206;-54
2022/11/06 03:05:07;;;;;;;14.88;7.78;;;;;;;13.64;59.90;94159.81;4193502;28;20040;-56
2022/11/06 03:07:18;;;;;;;14.87;8.00;;;;;;;13.69;60.17;94152.13;4187922;28;20044;-53
2022/11/06 03:09:24;;;;;;;16.00;7.25;;;;;;;13.74;59.86;94155.00;4206946;28;20127;-56
2022/11/06 03:11:31;;;;;;;12.48;7.38;;;;;;;13.82;59.90;94157.50;4186953;28;20044;-54
2022/11/06 03:13:35;;;;;;;13.25;7.95;;;;;;;13.88;59.25;94156.72;4196103;28;20095;-53
2022/11/06 03:15:48;;;;;;;14.82;7.53;;;;;;;13.88;59.13;94159.38;4185845;28;20059;-56
2022/11/06 03:18:12;;;;;;;17.10;7.60;;;;;;;13.94;59.38;94157.78;4193886;28;20181;-57
2022/11/06 03:20:39;;;;;;;14.35;7.88;;;;;;;13.87;59.55;94160.38;4185442;28;20451;-55
2022/11/06 03:23:15;;;;;;;11.90;7.68;;;;;;;13.85;59.63;94157.13;4185454;28;20162;-56
2022/11/06 03:25:27;;;;;;;17.67;8.27;;;;;;;13.80;59.97;94159.50;4200880;28;20055;-57
2022/11/06 03:27:34;;;;;;;13.43;7.70;;;;;;;13.79;60.02;94155.25;4191410;28;20127;-52
2022/11/06 03:29:46;;;;;;;16.38;8.50;;;;;;;13.75;60.41;94153.19;4191405;28;20067;-56
2022/11/06 03:31:55;;;;;;;12.43;8.55;;;;;;;13.73;60.47;94172.63;4182722;28;20049;-55
2022/11/06 03:34:01;;;;;;;17.25;8.38;;;;;;;13.66;60.34;94169.13;4187320;28;20545;-56
2022/11/06 03:36:29;;;;;;;20.65;9.35;;;;;;;13.67;60.88;94172.56;4205960;28;20083;-54
2022/11/06 03:38:38;;;;;;;16.95;8.38;;;;;;;13.67;61.16;94162.03;4185471;28;20397;-55
2022/11/06 03:40:49;;;;;;;19.92;9.40;;;;;;;13.68;61.09;94176.81;4192234;28;20152;-55
2022/11/06 03:42:54;;;;;;;15.68;7.72;;;;;;;13.67;61.31;94176.00;4189551;28;20119;-55
2022/11/06 03:45:03;;;;;;;12.38;8.32;;;;;;;13.71;61.09;94173.81;4184674;28;20048;-56
2022/11/06 03:47:23;;;;;;;15.63;8.05;;;;;;;13.78;60.72;94176.50;4186146;28;20076;-54
2022/11/06 03:49:32;;;;;;;17.45;8.30;;;;;;;13.63;61.08;94174.75;4209413;28;20106;-51
2022/11/06 03:51:55;;;;;;;15.10;8.80;;;;;;;13.51;61.73;94173.69;4186393;28;20048;-52
2022/11/06 03:54:04;;;;;;;17.92;9.60;;;;;;;13.27;62.60;94174.81;4195777;28;20130;-55
2022/11/06 03:56:13;;;;;;;18.42;9.15;;;;;;;13.29;62.65;94167.59;4193993;28;20049;-53
2022/11/06 03:58:22;;;;;;;15.23;9.02;;;;;;;13.25;62.62;94169.78;4198694;28;20091;-55
2022/11/06 04:00:23;;;;;;;15.60;9.52;;;;;;;13.25;62.65;94161.03;4208742;28;20083;-53
2022/11/06 04:02:29;;;;;;;15.55;8.82;;;;;;;13.22;63.01;94171.94;4208310;28;20056;-53
2022/11/06 04:04:48;;;;;;;17.08;9.50;;;;;;;13.25;62.99;94172.41;4209870;28;20105;-51
2022/11/06 04:07:00;;;;;;;13.60;8.63;;;;;;;13.29;62.95;94165.78;4208313;28;20533;-53
2022/11/06 04:13:56;;;;;;;12.85;8.65;;;;;;;12.93;63.84;94178.97;4190668;28;20082;-51
2022/11/06 04:15:58;;;;;;;15.93;9.10;;;;;;;12.78;64.85;94188.69;4183935;28;20093;-51
2022/11/06 04:18:00;;;;;;;17.08;9.65;;;;;;;12.78;65.34;94186.06;4193794;28;20048;-56
2022/11/06 04:20:05;;;;;;;14.75;9.35;;;;;;;12.69;65.77;94187.97;4194411;28;20131;-53
2022/11/06 04:22:25;;;;;;;17.13;9.57;;;;;;;12.66;66.48;94188.34;4179103;28;20158;-52
2022/11/06 04:27:08;;;;;;;18.50;10.13;;;;;;;12.83;66.56;94173.19;4183283;28;20123;-54
2022/11/06 04:29:16;;;;;;;16.25;9.50;;;;;;;12.79;67.03;94182.44;4185132;28;20091;-56
2022/11/06 04:31:35;;;;;;;15.85;9.85;;;;;;;12.85;67.01;94184.31;4191130;28;20076;-57
2022/11/06 04:33:39;;;;;;;17.10;9.77;;;;;;;12.81;67.27;94178.63;4176151;28;20048;-53
2022/11/06 04:35:44;;;;;;;14.00;9.52;;;;;;;12.86;67.61;94178.06;4187998;28;20048;-53
2022/11/06 04:38:17;;;;;;;16.33;9.45;;;;;;;12.88;67.65;94191.81;4194759;28;20063;-50
2022/11/06 04:40:45;;;;;;;14.48;9.15;;;;;;;12.84;68.26;94180.06;4169461;28;20763;-56
2022/11/06 04:43:19;;;;;;;19.58;10.05;;;;;;;12.88;68.06;94189.19;4173647;28;20166;-54
2022/11/06 04:45:31;;;;;;;15.18;9.68;;;;;;;12.98;68.30;94194.97;4160615;28;20547;-51
2022/11/06 04:47:34;;;;;;;15.25;9.35;;;;;;;12.97;68.13;94180.22;4191302;28;20141;-52
2022/11/06 04:49:38;;;;;;;16.05;9.88;;;;;;;12.98;68.59;94191.53;4189335;28;20056;-54
2022/11/06 04:51:42;;;;;;;15.77;9.98;;;;;;;13.01;68.62;94183.28;4183198;28;20083;-55
2022/11/06 04:53:44;;;;;;;13.95;9.55;;;;;;;13.06;68.13;94183.53;4182953;28;20418;-53
2022/11/06 04:55:48;;;;;;;21.40;10.05;;;;;;;13.13;68.24;94194.94;4207241;28;20044;-52
2022/11/06 04:57:49;;;;;;;14.98;9.32;;;;;;;13.11;68.25;94196.94;4197246;28;20134;-51
2022/11/06 04:59:51;;;;;;;18.92;10.05;;;;;;;12.99;69.16;94198.41;4212441;28;20554;-50
2022/11/06 05:01:53;;;;;;;20.77;10.32;;;;;;;12.94;69.18;94206.88;4210794;28;20056;-52
2022/11/06 05:03:55;;;;;;;13.10;9.65;;;;;;;12.84;70.12;94215.06;4211341;28;20048;-50
2022/11/06 05:05:57;;;;;;;14.45;10.38;;;;;;;12.75;70.08;94212.72;4182995;28;20102;-53
2022/11/06 05:07:58;;;;;;;20.38;11.18;;;;;;;12.79;70.30;94213.97;4203089;28;20052;-53
2022/11/06 05:10:00;;;;;;;17.20;10.10;;;;;;;12.76;71.00;94215.16;4200952;28;20052;-55
2022/11/06 05:12:02;;;;;;;18.77;10.40;;;;;;;12.85;70.30;94224.56;4195347;28;20174;-50
2022/11/06 05:14:04;;;;;;;13.95;11.05;;;;;;;12.97;69.73;94222.28;4190147;28;20155;-54
2022/11/06 05:16:06;;;;;;;15.85;10.65;;;;;;;13.07;69.80;94228.03;4186468;28;20174;-52
2022/11/06 05:18:08;;;;;;;15.82;10.10;;;;;;;13.15;69.27;94228.94;4195575;28;20056;-54
2022/11/06 05:20:11;;;;;;;14.57;10.35;;;;;;;13.18;69.46;94233.81;4196108;28;20105;-49
2022/11/06 05:24:33;;;;;;;20.85;10.48;;;;;;;13.07;70.03;94243.81;4195634;28;20455;-54
2022/11/06 05:26:35;;;;;;;16.05;10.85;;;;;;;13.09;70.23;94248.91;4194064;28;20524;-48
2022/11/06 05:28:36;;;;;;;15.75;10.50;;;;;;;13.10;70.40;94259.25;4185126;28;20230;-52
2022/11/06 05:30:38;;;;;;;15.95;10.60;;;;;;;13.20;69.96;94256.28;4185809;28;20053;-55
2022/11/06 05:32:40;;;;;;;18.23;10.18;;;;;;;13.28;69.57;94261.47;4192778;28;20079;-52
2022/11/06 05:34:41;;;;;;;17.52;11.00;;;;;;;13.35;69.02;94253.66;4193908;28;20152;-53
2022/11/06 05:36:43;;;;;;;17.42;10.52;;;;;;;13.38;68.63;94263.81;4186461;28;20055;-52
2022/11/06 05:38:45;;;;;;;16.10;11.35;;;;;;;13.42;69.05;94256.34;4203791;28;20052;-53
2022/11/06 05:40:46;;;;;;;20.67;10.43;;;;;;;13.48;68.76;94255.59;4209496;28;20301;-52
2022/11/06 05:42:48;;;;;;;16.00;10.32;;;;;;;13.51;68.31;94256.06;4204441;28;20048;-54
2022/11/06 05:44:50;;;;;;;15.02;9.82;;;;;;;13.54;67.87;94261.94;4209573;28;20383;-53
2022/11/06 05:46:51;;;;;;;20.80;10.55;;;;;;;13.54;67.49;94261.94;4206753;28;20051;-55
2022/11/06 05:48:53;;;;;;;15.48;10.13;;;;;;;13.57;66.90;94275.53;4197789;28;20075;-55
2022/11/06 05:51:02;;;;;;;17.58;9.90;;;;;;;13.60;66.49;94277.78;4208111;28;20048;-57
2022/11/06 05:53:04;;;;;;;19.23;10.18;;;;;;;13.65;66.18;94282.50;4201083;28;20521;-51
2022/11/06 05:55:06;;;;;;;19.17;10.02;;;;;;;13.66;65.94;94287.56;4195805;28;20519;-56
2022/11/06 05:57:15;;;;;;;13.75;9.05;;;;;;;13.66;66.10;94284.94;4195284;28;20662;-50
2022/11/06 05:59:16;;;;;;;13.82;10.15;;;;;;;13.64;66.08;94281.69;4193259;28;20048;-53
2022/11/06 06:01:18;;;;;;;15.85;10.25;;;;;;;13.65;66.09;94293.81;4182787;28;20514;-51
2022/11/06 06:03:20;;;;;;;17.52;9.77;;;;;;;13.67;66.35;94291.81;4192740;28;20179;-54
2022/11/06 06:05:21;;;;;;;16.35;10.52;;;;;;;13.67;66.66;94291.03;4199541;28;20072;-55
2022/11/06 06:07:23;;;;;;;16.55;10.75;;;;;;;13.70;66.57;94290.63;4196593;28;20083;-51
2022/11/06 06:09:25;;;;;;;16.95;10.10;;;;;;;13.71;66.66;94287.81;4190163;28;20049;-57
2022/11/06 06:11:27;;;;;;;16.58;10.57;;;;;;;13.76;66.83;94295.16;4196209;28;20068;-54
2022/11/06 06:13:28;;;;;;;16.45;10.30;;;;;;;13.79;66.84;94289.53;4197148;28;20052;-56
2022/11/06 06:15:30;;;;;;;19.60;10.60;;;;;;;13.85;66.96;94294.03;4183950;28;20076;-54
2022/11/06 06:17:32;;;;;;;16.80;10.38;;;;;;;13.89;67.17;94284.72;4196622;28;20159;-55
2022/11/06 06:19:33;;;;;;;22.38;10.40;;;;;;;13.93;66.94;94288.63;4196125;28;20045;-55
2022/11/06 06:21:35;;;;;;;14.75;10.27;;;;;;;13.97;67.08;94290.88;4185206;28;20131;-55
2022/11/06 06:23:37;;;;;;;17.25;9.73;;;;;;;14.01;67.27;94294.78;4191139;28;20111;-54
2022/11/06 06:25:39;;;;;;;18.20;10.55;;;;;;;14.01;67.35;94292.94;4189238;28;20200;-50
2022/11/06 06:27:41;;;;;;;19.05;9.45;;;;;;;13.99;67.15;94299.41;4194102;28;20048;-52
2022/11/06 06:29:42;;;;;;;14.52;9.68;;;;;;;13.96;67.51;94302.41;4193923;28;20519;-54
2022/11/06 06:31:44;;;;;;;17.00;10.50;;;;;;;13.88;67.43;94306.00;4179775;28;20053;-56
2022/11/06 06:33:46;;;;;;;17.65;10.13;;;;;;;13.80;68.00;94296.41;4181537;28;20434;-56
2022/11/06 06:35:47;;;;;;;13.70;10.02;;;;;;;13.83;67.78;94306.56;4194420;28;20068;-54
2022/11/06 06:37:53;;;;;;;17.52;10.65;;;;;;;13.91;68.18;94302.97;4196270;28;20127;-56
2022/11/06 06:39:55;;;;;;;17.83;10.75;;;;;;;13.97;67.78;94311.94;4203428;28;20117;-54
2022/11/06 06:41:57;;;;;;;18.33;11.65;;;;;;;14.01;67.47;94314.00;4184707;28;20049;-55
2022/11/06 06:43:59;;;;;;;16.90;11.65;;;;;;;14.05;67.27;94319.72;4181921;28;20246;-51
2022/11/06 06:46:03;;;;;;;19.60;11.25;;;;;;;14.09;67.06;94316.53;4181727;28;20453;-54
2022/11/06 06:48:05;;;;;;;20.38;11.13;;;;;;;14.11;67.12;94321.56;4195189;28;20784;-54
2022/11/06 06:50:08;;;;;;;17.33;10.75;;;;;;;14.09;66.93;94324.44;4195022;28;20072;-54
2022/11/06 06:52:11;;;;;;;22.65;11.32;;;;;;;13.98;67.37;94319.69;4188548;28;20049;-55
2022/11/06 06:54:12;;;;;;;16.95;11.23;;;;;;;13.86;68.20;94324.63;4194072;28;20086;-53
2022/11/06 06:56:14;;;;;;;17.40;11.75;;;;;;;13.82;67.97;94328.63;4193848;28;20140;-53
2022/11/06 06:58:16;;;;;;;18.85;12.55;;;;;;;13.77;68.58;94317.84;4201415;28;20071;-55
2022/11/06 07:00:18;;;;;;;16.25;11.48;;;;;;;13.77;68.48;94327.56;4201454;28;20055;-57
2022/11/06 07:02:20;;;;;;;16.35;10.75;;;;;;;13.83;68.62;94332.91;4195790;28;20472;-53
2022/11/06 07:04:22;;;;;;;23.08;11.93;;;;;;;13.92;67.92;94334.41;4198346;28;20414;-54
2022/11/06 07:06:24;;;;;;;19.17;12.07;;;;;;;13.99;67.90;94337.09;4204819;28;20070;-51
2022/11/06 07:08:26;;;;;;;18.27;12.52;;;;;;;14.09;67.32;94336.78;4194752;28;20084;-53
2022/11/06 07:10:29;;;;;;;19.88;11.43;;;;;;;14.14;67.03;94347.56;4185249;28;20183;-52
2022/11/06 07:12:31;;;;;;;18.00;12.05;;;;;;;14.24;67.06;94344.59;4189615;28;20139;-54
2022/11/06 07:14:33;;;;;;;20.15;11.50;;;;;;;14.23;66.73;94338.50;4209774;28;20139;-52
2022/11/06 07:16:35;;;;;;;22.33;11.63;;;;;;;14.19;66.88;94347.78;4208532;28;20166;-55
2022/11/06 07:18:38;;;;;;;19.63;11.70;;;;;;;14.17;66.86;94341.91;4209212;28;20054;-52
2022/11/06 07:20:39;;;;;;;15.73;10.63;;;;;;;14.14;67.17;94351.00;4210321;28;20101;-53
2022/11/06 07:22:41;;;;;;;17.00;11.23;;;;;;;14.19;66.96;94360.97;4210008;28;20139;-53
2022/11/06 07:24:43;;;;;;;18.58;11.95;;;;;;;14.23;66.51;94353.50;4209432;28;20088;-52
2022/11/06 07:26:44;;;;;;;19.10;11.68;;;;;;;14.29;66.41;94360.66;4209871;28;20438;-53
2022/11/06 07:28:46;;;;;;;16.98;12.43;;;;;;;14.42;66.57;94362.59;4210139;28;20075;-52
2022/11/06 07:30:48;;;;;;;17.17;11.35;;;;;;;14.49;65.64;94363.44;4198108;28;20197;-53
2022/11/06 07:32:49;;;;;;;21.02;11.25;;;;;;;14.52;65.73;94361.25;4181862;28;20149;-53
2022/11/06 07:34:51;;;;;;;18.23;11.27;;;;;;;14.55;65.60;94365.34;4194224;28;20531;-51
2022/11/06 07:36:53;;;;;;;19.77;11.48;;;;;;;14.56;65.65;94366.16;4187553;28;20171;-54
2022/11/06 07:38:55;;;;;;;18.58;12.48;;;;;;;14.59;65.66;94371.88;4189402;28;20478;-53
2022/11/06 07:41:01;;;;;;;16.88;11.05;;;;;;;14.57;65.39;94373.88;4192218;28;20135;-55
2022/11/06 07:43:04;;;;;;;17.67;11.15;;;;;;;14.61;65.71;94371.69;4193292;28;20530;-55
2022/11/06 07:45:06;;;;;;;18.73;11.77;;;;;;;14.63;65.20;94364.41;4187484;28;20148;-55
2022/11/06 07:47:08;;;;;;;18.05;11.25;;;;;;;14.66;65.07;94364.00;4179829;28;20085;-56
2022/11/06 07:49:10;;;;;;;21.80;11.70;;;;;;;14.68;65.12;94362.81;4199749;28;20109;-54
2022/11/06 07:51:11;;;;;;;17.77;12.07;;;;;;;14.71;64.56;94372.13;4187073;28;20139;-55
2022/11/06 07:53:13;;;;;;;16.38;10.75;;;;;;;14.72;64.72;94371.97;4197261;28;20059;-53
2022/11/06 07:55:15;;;;;;;17.73;11.93;;;;;;;14.77;64.79;94375.84;4196970;28;20144;-51
2022/11/06 07:57:17;;;;;;;22.15;12.23;;;;;;;14.71;64.76;94370.34;4194435;28;20048;-52
2022/11/06 07:59:18;;;;;;;18.60;11.60;;;;;;;14.70;64.83;94371.34;4205820;28;20589;-54
2022/11/06 08:01:20;;;;;;;20.55;11.80;;;;;;;14.74;64.79;94377.03;4205748;28;20135;-57
2022/11/06 08:03:23;;;;;;;20.65;12.57;;;;;;;14.81;64.54;94385.81;4198151;28;20060;-54
2022/11/06 08:05:25;;;;;;;21.00;12.43;;;;;;;14.87;64.45;94384.22;4199346;28;20055;-53
2022/11/06 08:07:26;;;;;;;36.17;12.57;;;;;;;14.82;64.15;94378.69;4206472;28;20052;-54
2022/11/06 08:09:28;;;;;;;23.05;12.38;;;;;;;14.82;64.17;94384.81;4205843;28;20127;-54
2022/11/06 08:11:30;;;;;;;23.52;12.75;;;;;;;14.76;65.36;94388.22;4187248;28;20662;-54
2022/11/06 08:13:35;;;;;;;21.13;13.43;;;;;;;14.72;65.03;94390.41;4205806;28;20062;-53
2022/11/06 08:15:38;;;;;;;19.65;12.30;;;;;;;14.68;65.12;94394.44;4186272;28;20044;-55
2022/11/06 08:17:39;;;;;;;19.42;13.52;;;;;;;14.70;64.85;94397.69;4210475;28;20048;-54
2022/11/06 08:19:41;;;;;;;24.27;13.52;;;;;;;14.77;64.95;94384.56;4185499;28;20052;-56
2022/11/06 08:21:43;;;;;;;26.55;13.90;;;;;;;14.79;65.21;94397.56;4193302;28;20080;-58
2022/11/06 08:23:44;;;;;;;24.92;13.88;;;;;;;14.85;65.04;94396.78;4193734;28;20135;-54
2022/11/06 08:25:46;;;;;;;20.90;13.77;;;;;;;14.84;64.91;94382.81;4193661;28;20522;-55
2022/11/06 08:27:48;;;;;;;20.92;13.73;;;;;;;14.83;65.27;94389.06;4209883;28;20055;-53
2022/11/06 08:29:49;;;;;;;30.45;14.90;;;;;;;14.77;65.47;94389.03;4213308;28;20082;-58
2022/11/06 08:31:51;;;;;;;20.08;13.77;;;;;;;14.69;66.01;94390.81;4211838;28;20151;-54
2022/11/06 08:33:53;;;;;;;22.60;16.00;;;;;;;14.72;66.23;94394.88;4213546;28;20052;-56
2022/11/06 08:35:55;;;;;;;26.05;15.27;;;;;;;14.80;65.79;94396.53;4212644;28;20132;-51
2022/11/06 08:37:56;;;;;;;23.05;15.05;;;;;;;14.86;65.79;94398.41;4213055;28;20428;-52
2022/11/06 08:39:58;;;;;;;23.00;14.15;;;;;;;14.84;65.69;94396.00;4213078;28;20048;-51
2022/11/06 08:42:00;;;;;;;20.77;15.13;;;;;;;14.86;66.51;94395.78;4212970;28;20052;-53
2022/11/06 08:44:02;;;;;;;27.95;15.95;;;;;;;14.84;67.33;94400.44;4188160;28;20085;-55
2022/11/06 08:46:05;;;;;;;23.05;16.17;;;;;;;14.89;67.57;94411.22;4211065;28;20237;-56
2022/11/06 08:48:07;;;;;;;22.65;15.38;;;;;;;14.84;68.48;94411.81;4212715;28;20517;-56
2022/11/06 08:50:09;;;;;;;21.83;15.73;;;;;;;14.82;68.93;94412.97;4212806;28;20138;-56
2022/11/06 08:52:10;;;;;;;23.98;15.88;;;;;;;14.75;69.61;94418.22;4208874;28;20139;-56
2022/11/06 08:54:12;;;;;;;22.40;15.75;;;;;;;14.63;70.11;94423.22;4196722;28;20123;-55
2022/11/06 08:56:14;;;;;;;22.75;16.10;;;;;;;14.61;70.13;94427.84;4194351;28;20089;-55
2022/11/06 08:58:16;;;;;;;23.90;15.95;;;;;;;14.65;70.52;94434.38;4203086;28;20553;-55
2022/11/06 09:00:18;;;;;;;22.65;15.73;;;;;;;14.68;70.57;94431.34;4211334;28;20298;-54
2022/11/06 09:02:19;;;;;;;21.63;16.02;;;;;;;14.73;70.42;94434.25;4211421;28;20503;-52
2022/11/06 09:04:21;;;;;;;23.05;15.80;;;;;;;14.74;70.08;94435.88;4187155;28;20048;-50
2022/11/06 09:06:24;;;;;;;24.73;17.55;;;;;;;14.83;70.15;94438.38;4211922;28;20046;-55
2022/11/06 09:08:25;;;;;;;23.98;16.40;;;;;;;14.88;69.80;94446.50;4212722;28;20071;-54
2022/11/06 09:10:27;;;;;;;22.42;17.27;;;;;;;14.98;69.97;94447.00;4195365;28;20139;-56
2022/11/06 09:12:29;;;;;;;28.23;18.58;;;;;;;15.07;69.53;94439.75;4187091;28;20048;-57
2022/11/06 09:14:32;;;;;;;22.30;16.85;;;;;;;15.13;69.64;94438.97;4197580;28;20246;-56
2022/11/06 09:16:34;;;;;;;23.27;16.92;;;;;;;15.14;69.62;94436.16;4184709;28;20498;-58
2022/11/06 09:18:35;;;;;;;22.88;16.60;;;;;;;15.06;69.96;94432.84;4193945;28;20094;-58
2022/11/06 09:20:37;;;;;;;23.13;16.48;;;;;;;15.00;70.40;94434.44;4182273;28;20052;-57
2022/11/06 09:22:39;;;;;;;20.77;16.48;;;;;;;15.01;71.08;94435.25;4189749;28;20133;-60
2022/11/06 09:24:40;;;;;;;24.50;17.60;;;;;;;14.96;71.02;94430.53;4196916;28;20087;-56
2022/11/06 09:27:02;;;;;;;24.00;16.92;;;;;;;14.82;71.78;94434.09;4186539;28;20056;-54
2022/11/06 09:29:04;;;;;;;22.77;17.30;;;;;;;14.80;72.21;94436.09;4188788;28;20081;-55
2022/11/06 09:31:06;;;;;;;23.30;17.80;;;;;;;14.80;72.38;94436.09;4191015;28;20174;-54
2022/11/06 09:33:08;;;;;;;25.95;17.30;;;;;;;14.77;72.68;94439.13;4197836;28;20058;-57
2022/11/06 09:35:15;;;;;;;22.73;16.63;;;;;;;14.71;72.92;94433.63;4191141;28;20198;-59
2022/11/06 09:37:16;;;;;;;27.10;18.40;;;;;;;14.67;73.15;94437.66;4182455;28;20128;-55
2022/11/06 09:39:18;;;;;;;29.13;18.00;;;;;;;14.66;73.47;94443.09;4206349;28;20123;-56
2022/11/06 09:41:27;;;;;;;23.20;16.33;;;;;;;14.57;73.69;94442.41;4186816;28;20142;-56
2022/11/06 09:43:44;;;;;;;22.98;16.05;;;;;;;14.40;73.95;94443.66;4186506;28;20051;-56
2022/11/06 09:46:40;;;;;;;20.60;16.02;;;;;;;14.44;74.08;94434.38;4192637;28;20055;-55